Time,TemperatureF,DewpointF,PressureIn,WindDirection,WindDirectionDegrees,WindSpeedMPH,WindSpeedGustMPH,Humidity,HourlyPrecipIn,Conditions,Clouds,dailyrainin,SoftwareType,DateUTC
2013-04-14 00:06:00,28.6,25.0,29.57,SSW,194,1.0,-999.0,87,-99.99,,,0.00,weatherlink.com 1.10,2013-04-14 06:06:00,
2013-04-14 00:21:00,27.8,24.0,29.58,South,188,0.0,-999.0,87,-99.99,,,0.00,weatherlink.com 1.10,2013-04-14 06:21:00,
2013-04-14 00:36:00,27.4,24.0,29.58,East,85,4.0,-999.0,88,-99.99,,,0.00,weatherlink.com 1.10,2013-04-14 06:36:00,
2013-04-14 00:51:00,27.2,24.0,29.58,East,100,0.0,-999.0,89,-99.99,,,0.00,weatherlink.com 1.10,2013-04-14 06:51:00,
2013-04-14 01:06:00,27.2,24.0,29.59,SSE,162,0.0,-999.0,89,-99.99,,,0.00,weatherlink.com 1.10,2013-04-14 07:06:00,
2013-04-14 01:21:00,25.9,22.0,29.58,NNE,20,0.0,-999.0,86,-99.99,,,0.00,weatherlink.com 1.10,2013-04-14 07:21:00,
2013-04-14 01:36:00,23.8,20.0,29.57,ENE,74,0.0,-999.0,84,-99.99,,,0.00,weatherlink.com 1.10,2013-04-14 07:36:00,
2013-04-14 01:51:00,21.9,18.0,29.59,SSE,165,0.0,-999.0,84,-99.99,,,0.00,weatherlink.com 1.10,2013-04-14 07:51:00,
2013-04-14 02:21:00,21.2,18.0,29.57,NW,323,0.0,-999.0,87,-99.99,,,0.00,weatherlink.com 1.10,2013-04-14 08:21:00,
2013-04-14 02:36:00,21.2,18.0,29.57,NW,323,0.0,-999.0,87,-99.99,,,0.00,weatherlink.com 1.10,2013-04-14 08:36:00,
2013-04-14 02:51:00,21.9,19.0,29.56,NNW,344,0.0,-999.0,88,-99.99,,,0.00,weatherlink.com 1.10,2013-04-14 08:51:00,
2013-04-14 03:06:00,22.4,19.0,29.55,East,89,0.0,-999.0,88,-99.99,,,0.00,weatherlink.com 1.10,2013-04-14 09:06:00,
2013-04-14 03:21:00,22.4,19.0,29.55,East,84,0.0,-999.0,87,-99.99,,,0.00,weatherlink.com 1.10,2013-04-14 09:21:00,
2013-04-14 03:36:00,22.4,19.0,29.55,East,84,0.0,-999.0,87,-99.99,,,0.00,weatherlink.com 1.10,2013-04-14 09:36:00,
2013-04-14 03:51:00,22.3,19.0,29.54,ENE,67,0.0,-999.0,87,-99.99,,,0.00,weatherlink.com 1.10,2013-04-14 09:51:00,
2013-04-14 04:06:00,22.2,19.0,29.53,ENE,67,0.0,-999.0,87,-99.99,,,0.00,weatherlink.com 1.10,2013-04-14 10:06:00,
2013-04-14 04:21:00,22.1,19.0,29.52,ENE,63,0.0,-999.0,86,-99.99,,,0.00,weatherlink.com 1.10,2013-04-14 10:21:00,
2013-04-14 05:06:00,19.7,16.0,29.53,WNW,300,0.0,-999.0,85,-99.99,,,0.00,weatherlink.com 1.10,2013-04-14 11:06:00,
2013-04-14 05:21:00,19.3,16.0,29.54,WNW,300,0.0,-999.0,86,-99.99,,,0.00,weatherlink.com 1.10,2013-04-14 11:21:00,
2013-04-14 05:36:00,19.7,17.0,29.54,SSE,159,0.0,-999.0,88,-99.99,,,0.00,weatherlink.com 1.10,2013-04-14 11:36:00,
2013-04-14 05:51:00,19.7,17.0,29.54,ENE,78,1.0,-999.0,87,-99.99,,,0.00,weatherlink.com 1.10,2013-04-14 11:51:00,
2013-04-14 06:06:00,19.5,16.0,29.55,ESE,115,2.0,-999.0,85,-99.99,,,0.00,weatherlink.com 1.10,2013-04-14 12:06:00,
2013-04-14 06:21:00,19.0,15.0,29.55,ESE,107,2.0,-999.0,84,-99.99,,,0.00,weatherlink.com 1.10,2013-04-14 12:21:00,
2013-04-14 06:36:00,18.7,14.0,29.54,ESE,105,2.0,-999.0,80,-99.99,,,0.00,weatherlink.com 1.10,2013-04-14 12:36:00,
2013-04-14 06:51:00,18.2,13.0,29.56,NNE,33,2.0,-999.0,79,-99.99,,,0.00,weatherlink.com 1.10,2013-04-14 12:51:00,
2013-04-14 07:06:00,17.8,12.0,29.55,ESE,122,8.0,-999.0,78,-99.99,,,0.00,weatherlink.com 1.10,2013-04-14 13:06:00,
2013-04-14 07:21:00,17.3,12.0,29.56,SSE,149,2.0,-999.0,78,-99.99,,,0.00,weatherlink.com 1.10,2013-04-14 13:21:00,
2013-04-14 07:36:00,17.3,11.0,29.57,ESE,102,5.0,-999.0,76,-99.99,,,0.00,weatherlink.com 1.10,2013-04-14 13:36:00,
2013-04-14 07:51:00,17.5,10.0,29.57,WSW,248,5.0,-999.0,73,-99.99,,,0.00,weatherlink.com 1.10,2013-04-14 13:51:00,
2013-04-14 08:21:00,17.6,10.0,29.58,SSW,200,1.0,-999.0,73,-99.99,,,0.00,weatherlink.com 1.10,2013-04-14 14:21:00,
2013-04-14 08:36:00,18.0,10.0,29.59,SSW,196,1.0,-999.0,72,-99.99,,,0.00,weatherlink.com 1.10,2013-04-14 14:36:00,
2013-04-14 08:51:00,18.3,10.0,29.59,East,90,1.0,-999.0,71,-99.99,,,0.00,weatherlink.com 1.10,2013-04-14 14:51:00,
2013-04-14 09:06:00,18.6,10.0,29.60,SE,132,2.0,-999.0,69,-99.99,,,0.00,weatherlink.com 1.10,2013-04-14 15:06:00,
2013-04-14 09:21:00,19.1,10.0,29.60,East,93,2.0,-999.0,68,-99.99,,,0.00,weatherlink.com 1.10,2013-04-14 15:21:00,
2013-04-14 09:36:00,19.3,10.0,29.61,ENE,71,5.0,-999.0,66,-99.99,,,0.00,weatherlink.com 1.10,2013-04-14 15:36:00,
2013-04-14 10:06:00,19.7,9.0,29.62,South,188,3.0,-999.0,63,-99.99,,,0.00,weatherlink.com 1.10,2013-04-14 16:06:00,
2013-04-14 11:21:00,21.8,9.0,29.67,ENE,70,4.0,-999.0,59,-99.99,,,0.00,weatherlink.com 1.10,2013-04-14 17:21:00,
2013-04-14 11:51:00,22.0,9.0,29.68,East,87,0.0,-999.0,58,-99.99,,,0.00,weatherlink.com 1.10,2013-04-14 17:51:00,
2013-04-14 12:06:00,22.7,9.0,29.68,SSE,167,6.0,-999.0,55,-99.99,,,0.00,weatherlink.com 1.10,2013-04-14 18:06:00,
2013-04-14 12:21:00,23.2,9.0,29.68,South,177,1.0,-999.0,55,-99.99,,,0.00,weatherlink.com 1.10,2013-04-14 18:21:00,
2013-04-14 12:36:00,23.4,7.0,29.69,ENE,57,0.0,-999.0,50,-99.99,,,0.00,weatherlink.com 1.10,2013-04-14 18:36:00,
2013-04-14 12:51:00,23.9,9.0,29.70,East,95,4.0,-999.0,53,-99.99,,,0.00,weatherlink.com 1.10,2013-04-14 18:51:00,
2013-04-14 13:36:00,25.7,8.0,29.71,South,190,6.0,-999.0,48,-99.99,,,0.00,weatherlink.com 1.10,2013-04-14 19:36:00,
2013-04-14 13:51:00,27.1,9.0,29.70,South,177,0.0,-999.0,47,-99.99,,,0.00,weatherlink.com 1.10,2013-04-14 19:51:00,
2013-04-14 14:51:00,26.5,10.0,29.74,SSW,200,6.0,-999.0,50,-99.99,,,0.00,weatherlink.com 1.10,2013-04-14 20:51:00,
2013-04-14 20:51:00,-999.0,-99.9,0.00,North,-999,-999.0,-999.0,-999,-99.99,,,0.00,weatherlink.com 1.10,2013-04-15 02:51:00,
2013-04-14 21:05:00,26.2,14.0,29.78,ESE,103,2.0,-999.0,60,-99.99,,,0.00,weatherlink.com 1.10,2013-04-15 03:05:00,
2013-04-14 21:20:00,26.6,14.0,29.80,East,96,0.0,-999.0,60,-99.99,,,0.00,weatherlink.com 1.10,2013-04-15 03:20:00,
2013-04-14 21:35:00,26.4,15.0,29.83,SE,140,0.0,-999.0,63,-99.99,,,0.00,weatherlink.com 1.10,2013-04-15 03:35:00,
2013-04-14 21:50:00,26.0,17.0,29.84,SE,140,0.0,-999.0,68,-99.99,,,0.00,weatherlink.com 1.10,2013-04-15 03:50:00,
2013-04-14 22:05:00,25.6,17.0,29.85,SE,140,1.0,-999.0,69,-99.99,,,0.00,weatherlink.com 1.10,2013-04-15 04:05:00,
2013-04-14 22:20:00,25.4,18.0,29.86,SE,140,0.0,-999.0,72,-99.99,,,0.00,weatherlink.com 1.10,2013-04-15 04:20:00,
2013-04-14 22:35:00,25.3,17.0,29.86,SE,140,0.0,-999.0,71,-99.99,,,0.00,weatherlink.com 1.10,2013-04-15 04:35:00,
2013-04-14 22:50:00,25.0,17.0,29.87,SE,140,0.0,-999.0,72,-99.99,,,0.00,weatherlink.com 1.10,2013-04-15 04:50:00,
2013-04-14 23:05:00,24.6,17.0,29.87,SE,140,0.0,-999.0,74,-99.99,,,0.00,weatherlink.com 1.10,2013-04-15 05:05:00,
2013-04-14 23:20:00,24.3,17.0,29.88,SE,140,0.0,-999.0,75,-99.99,,,0.00,weatherlink.com 1.10,2013-04-15 05:20:00,
2013-04-14 23:35:00,24.2,18.0,29.88,SE,140,0.0,-999.0,76,-99.99,,,0.00,weatherlink.com 1.10,2013-04-15 05:35:00,
2013-04-14 23:50:00,24.1,18.0,29.86,SE,140,0.0,-999.0,77,-99.99,,,0.00,weatherlink.com 1.10,2013-04-15 05:50:00,